Time;durP1;ratioP1;P1;durP2;ratioP2;P2;SDS_P1;SDS_P2;PMS_P1;PMS_P2;Temp;Humidity;BMP_temperature;BMP_pressure;BME280_temperature;BME280_humidity;BME280_pressure;Samples;Min_cycle;Max_cycle;Signal;HPM_P1;HPM_P2
2023/08/30 00:00:36;;;;;;;4.47;3.75;;;12.60;99.90;;;;;;7341649;32;20130;-55
2023/08/30 00:04:38;;;;;;;10.38;5.60;;;12.70;99.90;;;;;;7333303;32;20795;-56
2023/08/30 00:08:39;;;;;;;6.65;4.90;;;12.60;99.90;;;;;;7345645;32;20100;-55
2023/08/30 00:12:41;;;;;;;7.93;4.25;;;12.60;99.90;;;;;;7349956;32;20222;-56
2023/08/30 00:16:43;;;;;;;8.20;5.20;;;12.60;99.90;;;;;;7348227;32;20095;-55
2023/08/30 00:20:45;;;;;;;9.80;5.55;;;12.60;99.90;;;;;;7346237;32;20218;-55
2023/08/30 00:24:47;;;;;;;8.00;6.43;;;12.70;99.90;;;;;;7352648;32;20195;-55
2023/08/30 00:28:48;;;;;;;8.60;6.45;;;12.80;99.90;;;;;;7346834;32;20095;-56
2023/08/30 00:32:50;;;;;;;11.30;6.60;;;12.80;99.90;;;;;;7342228;32;20122;-55
2023/08/30 00:36:52;;;;;;;9.30;7.12;;;12.70;99.90;;;;;;7342169;32;20095;-55
2023/08/30 00:40:54;;;;;;;8.68;7.07;;;12.70;99.90;;;;;;7354194;32;20335;-55
2023/08/30 00:44:56;;;;;;;7.97;6.40;;;12.70;99.90;;;;;;7351446;32;20102;-55
2023/08/30 00:48:59;;;;;;;8.98;7.18;;;12.70;99.90;;;;;;7336248;32;20104;-55
2023/08/30 00:53:05;;;;;;;11.12;6.93;;;12.70;99.90;;;;;;7340553;32;20627;-55
2023/08/30 00:57:08;;;;;;;8.35;6.22;;;12.60;99.90;;;;;;7343227;32;20155;-56
2023/08/30 01:01:09;;;;;;;9.30;6.80;;;12.60;99.90;;;;;;7337845;32;20242;-56
2023/08/30 01:05:12;;;;;;;10.45;6.45;;;12.50;99.90;;;;;;7346359;32;20171;-56
2023/08/30 01:09:14;;;;;;;10.82;6.37;;;12.40;99.90;;;;;;7344478;32;20249;-56
2023/08/30 01:13:20;;;;;;;8.82;6.28;;;12.30;99.90;;;;;;7336143;32;20198;-55
2023/08/30 01:17:23;;;;;;;10.10;6.37;;;12.30;99.90;;;;;;7342735;32;20254;-56
2023/08/30 01:21:47;;;;;;;8.18;5.55;;;12.20;99.90;;;;;;7349368;32;20537;-56
2023/08/30 01:26:13;;;;;;;8.23;5.78;;;12.10;99.90;;;;;;7348268;32;20092;-57
2023/08/30 01:30:17;;;;;;;6.78;5.82;;;12.00;99.90;;;;;;7347563;32;20213;-56
2023/08/30 01:34:19;;;;;;;8.20;6.18;;;12.00;99.90;;;;;;7338203;32;20098;-55
2023/08/30 01:38:23;;;;;;;6.97;6.15;;;11.90;99.90;;;;;;7356929;32;20150;-55
2023/08/30 01:42:26;;;;;;;8.23;6.25;;;11.80;99.90;;;;;;7347112;32;20133;-56
2023/08/30 01:46:28;;;;;;;10.13;6.45;;;11.80;99.90;;;;;;7321300;32;20233;-56
2023/08/30 01:50:31;;;;;;;10.82;5.93;;;11.70;99.90;;;;;;7342858;32;20461;-56
2023/08/30 01:54:33;;;;;;;8.85;6.45;;;11.80;99.90;;;;;;7344625;32;20237;-56
2023/08/30 01:58:35;;;;;;;9.32;6.45;;;11.80;99.90;;;;;;7343101;32;20099;-55
2023/08/30 02:02:36;;;;;;;7.97;5.32;;;11.70;99.90;;;;;;7337414;32;20492;-56
2023/08/30 02:07:00;;;;;;;7.25;6.30;;;11.70;99.90;;;;;;7356267;32;20177;-56
2023/08/30 02:11:06;;;;;;;7.47;6.20;;;11.60;99.90;;;;;;7351779;32;20103;-56
2023/08/30 02:15:10;;;;;;;9.27;6.37;;;11.50;99.90;;;;;;7348010;32;20091;-56
2023/08/30 02:19:16;;;;;;;8.80;6.53;;;11.50;99.90;;;;;;7343073;32;20145;-56
2023/08/30 02:23:18;;;;;;;10.82;6.53;;;11.50;99.90;;;;;;7346173;32;20122;-56
2023/08/30 02:27:20;;;;;;;10.10;6.70;;;11.40;99.90;;;;;;7352626;32;20111;-55
2023/08/30 02:31:22;;;;;;;8.85;6.50;;;11.40;99.90;;;;;;7348675;32;20123;-56
2023/08/30 02:35:24;;;;;;;9.32;7.30;;;11.50;99.90;;;;;;7348190;32;20183;-55
2023/08/30 02:39:26;;;;;;;17.23;7.68;;;11.40;99.90;;;;;;7340823;32;20588;-55
2023/08/30 02:43:27;;;;;;;9.38;7.30;;;11.40;99.90;;;;;;7351111;32;20107;-56
2023/08/30 02:47:30;;;;;;;13.65;7.75;;;11.30;99.90;;;;;;7350462;32;20660;-56
2023/08/30 02:51:32;;;;;;;12.40;8.52;;;11.40;99.90;;;;;;7343827;32;20539;-55
2023/08/30 02:55:35;;;;;;;13.15;8.70;;;11.40;99.90;;;;;;7349284;32;20099;-55
2023/08/30 02:59:36;;;;;;;14.98;9.50;;;11.30;99.90;;;;;;7355041;32;20197;-56
2023/08/30 03:03:38;;;;;;;13.02;8.25;;;11.30;99.90;;;;;;7353911;32;20134;-55
2023/08/30 03:07:40;;;;;;;9.60;7.43;;;11.30;99.90;;;;;;7331837;32;20100;-56
2023/08/30 03:11:42;;;;;;;12.45;7.72;;;11.10;99.90;;;;;;7339945;32;20103;-56
2023/08/30 03:15:43;;;;;;;10.45;8.48;;;11.20;99.90;;;;;;7344713;32;20129;-56
2023/08/30 03:19:45;;;;;;;13.60;8.02;;;11.10;99.90;;;;;;7346321;32;20151;-56
2023/08/30 03:23:47;;;;;;;16.40;8.20;;;11.10;99.90;;;;;;7342448;32;20804;-56
2023/08/30 03:27:49;;;;;;;12.10;9.80;;;11.00;99.90;;;;;;7350237;32;20107;-56
2023/08/30 03:31:51;;;;;;;13.73;8.88;;;11.00;99.90;;;;;;7353405;32;20608;-55
2023/08/30 03:35:52;;;;;;;10.80;8.60;;;10.90;99.90;;;;;;7329779;32;20555;-56
2023/08/30 03:39:54;;;;;;;18.15;9.75;;;10.90;99.90;;;;;;7337952;32;20614;-56
2023/08/30 03:43:56;;;;;;;13.45;9.82;;;10.90;99.90;;;;;;7343941;32;20205;-55
2023/08/30 03:47:58;;;;;;;11.45;8.98;;;10.90;99.90;;;;;;7342548;32;20531;-56
2023/08/30 03:51:59;;;;;;;15.18;9.30;;;10.90;99.90;;;;;;7348661;32;20107;-56
2023/08/30 03:56:03;;;;;;;11.55;9.00;;;10.80;99.90;;;;;;7342952;32;20108;-56
2023/08/30 04:00:05;;;;;;;14.20;9.40;;;10.80;99.90;;;;;;7342544;32;20206;-54
2023/08/30 04:04:07;;;;;;;13.00;8.82;;;10.80;99.90;;;;;;7334241;32;20296;-56
2023/08/30 04:08:09;;;;;;;11.55;8.38;;;10.70;99.90;;;;;;7343910;32;20123;-56
2023/08/30 04:12:11;;;;;;;11.70;9.45;;;10.70;99.90;;;;;;7342129;32;20091;-57
2023/08/30 04:16:13;;;;;;;13.13;9.40;;;10.60;99.90;;;;;;7343310;32;20104;-56
2023/08/30 04:20:15;;;;;;;12.68;10.18;;;10.60;99.90;;;;;;7354843;32;20255;-56
2023/08/30 04:24:17;;;;;;;14.60;10.30;;;10.60;99.90;;;;;;7334646;32;20142;-55
2023/08/30 04:28:19;;;;;;;13.80;10.13;;;10.60;99.90;;;;;;7348263;32;20151;-55
2023/08/30 04:32:21;;;;;;;14.52;10.45;;;10.60;99.90;;;;;;7335321;32;20165;-55
2023/08/30 04:36:23;;;;;;;13.18;9.90;;;10.60;99.90;;;;;;7350584;32;20156;-55
2023/08/30 04:40:24;;;;;;;17.15;11.43;;;10.50;99.90;;;;;;7338967;32;20640;-55
2023/08/30 04:44:28;;;;;;;13.15;10.75;;;10.60;99.90;;;;;;7343412;32;20160;-55
2023/08/30 04:48:30;;;;;;;16.27;11.45;;;10.60;99.90;;;;;;7342139;32;20092;-56
2023/08/30 04:52:32;;;;;;;15.85;10.95;;;10.60;99.90;;;;;;7349240;32;20521;-57
2023/08/30 04:56:34;;;;;;;17.52;11.55;;;10.70;99.90;;;;;;7336044;32;20437;-57
2023/08/30 05:00:36;;;;;;;17.75;13.35;;;10.70;99.90;;;;;;7334299;32;20209;-56
2023/08/30 05:04:38;;;;;;;20.98;14.95;;;10.80;99.90;;;;;;7349451;32;20182;-56
2023/08/30 05:08:39;;;;;;;16.98;14.52;;;11.00;99.90;;;;;;7338585;32;20122;-56
2023/08/30 05:12:44;;;;;;;19.27;14.48;;;11.00;99.90;;;;;;7334258;32;20454;-56
2023/08/30 05:16:46;;;;;;;19.42;14.87;;;11.10;99.90;;;;;;7347101;32;20303;-55
2023/08/30 05:20:50;;;;;;;22.08;16.95;;;11.20;99.90;;;;;;7343344;32;20095;-57
2023/08/30 05:24:52;;;;;;;27.67;20.20;;;11.40;99.90;;;;;;7350978;32;20103;-56
2023/08/30 05:28:53;;;;;;;29.00;22.65;;;11.50;99.90;;;;;;7344423;32;20206;-56
2023/08/30 05:32:55;;;;;;;31.45;24.25;;;11.50;99.90;;;;;;7347159;32;20142;-56
2023/08/30 05:36:57;;;;;;;41.47;29.25;;;11.70;99.90;;;;;;7337878;32;20111;-57
2023/08/30 05:40:59;;;;;;;40.83;30.58;;;11.90;99.90;;;;;;7334449;32;20229;-58
2023/08/30 05:45:00;;;;;;;38.28;29.00;;;12.00;99.90;;;;;;7344194;32;20129;-57
2023/08/30 05:49:03;;;;;;;39.97;28.25;;;12.10;99.90;;;;;;7344872;32;20148;-58
2023/08/30 05:53:04;;;;;;;39.22;28.90;;;12.30;99.90;;;;;;7341814;32;20126;-56
2023/08/30 05:57:06;;;;;;;37.83;29.55;;;12.40;99.90;;;;;;7336274;32;20205;-56
2023/08/30 06:01:08;;;;;;;34.00;27.90;;;12.60;99.90;;;;;;7344197;32;20119;-58
2023/08/30 06:05:10;;;;;;;37.55;27.33;;;12.70;99.90;;;;;;7342925;32;20510;-57
2023/08/30 06:09:12;;;;;;;31.55;25.73;;;12.70;99.90;;;;;;7340847;32;20150;-57
2023/08/30 06:13:14;;;;;;;35.53;27.55;;;12.90;99.90;;;;;;7348457;32;20482;-56
2023/08/30 06:17:16;;;;;;;30.42;24.98;;;13.00;99.90;;;;;;7338958;32;20300;-56
2023/08/30 06:21:18;;;;;;;31.67;25.35;;;13.10;99.90;;;;;;7335911;32;20226;-56
2023/08/30 06:25:19;;;;;;;29.33;23.90;;;13.20;99.90;;;;;;7348919;32;20194;-56
2023/08/30 06:29:21;;;;;;;29.35;23.33;;;13.30;99.90;;;;;;7345952;32;20194;-57
2023/08/30 06:33:23;;;;;;;29.40;24.10;;;13.50;99.90;;;;;;7343560;32;20599;-57
2023/08/30 06:37:25;;;;;;;26.23;21.15;;;13.50;99.90;;;;;;7350168;32;20245;-57
2023/08/30 06:41:26;;;;;;;26.48;21.62;;;13.70;99.90;;;;;;7343194;32;20104;-57
2023/08/30 06:45:28;;;;;;;28.70;21.65;;;13.80;99.90;;;;;;7347687;32;20305;-58
2023/08/30 06:49:31;;;;;;;28.75;21.75;;;13.90;99.90;;;;;;7343246;32;20114;-57
2023/08/30 06:53:33;;;;;;;24.65;19.60;;;14.10;99.90;;;;;;7354584;32;20092;-57
2023/08/30 06:57:35;;;;;;;21.90;18.12;;;14.10;99.90;;;;;;7345645;32;20121;-56
2023/08/30 07:01:36;;;;;;;20.02;17.20;;;14.10;99.90;;;;;;7342377;32;20210;-58
2023/08/30 07:05:39;;;;;;;21.10;17.62;;;14.20;99.90;;;;;;7349865;32;20106;-59
2023/08/30 07:09:41;;;;;;;18.50;16.30;;;14.20;99.90;;;;;;7349110;32;20726;-57
2023/08/30 07:13:43;;;;;;;20.33;16.33;;;14.40;99.90;;;;;;7338938;32;20193;-58
2023/08/30 07:17:45;;;;;;;21.30;16.15;;;14.40;99.90;;;;;;7334953;32;20210;-58
2023/08/30 07:21:55;;;;;;;18.25;15.43;;;14.50;99.90;;;;;;7342755;32;20220;-58
2023/08/30 07:25:57;;;;;;;17.95;14.77;;;14.70;99.90;;;;;;7349122;32;20152;-57
2023/08/30 07:29:59;;;;;;;17.17;14.07;;;14.80;99.90;;;;;;7353407;32;20179;-57
2023/08/30 07:34:01;;;;;;;18.62;13.77;;;14.90;99.90;;;;;;7349630;32;20107;-57
2023/08/30 07:38:02;;;;;;;15.73;13.95;;;15.10;99.90;;;;;;7345032;32;20123;-57
2023/08/30 07:42:05;;;;;;;16.40;14.05;;;15.10;99.90;;;;;;7349514;32;20184;-57
2023/08/30 07:46:07;;;;;;;14.95;13.20;;;15.20;99.90;;;;;;7344382;32;20206;-58
2023/08/30 07:50:09;;;;;;;15.60;12.20;;;15.40;99.90;;;;;;7347491;32;20188;-57
2023/08/30 07:54:10;;;;;;;18.23;12.85;;;15.60;99.90;;;;;;7346597;32;20592;-57
2023/08/30 07:58:12;;;;;;;13.95;12.10;;;15.70;99.90;;;;;;7344020;32;20129;-57
2023/08/30 08:02:14;;;;;;;14.40;11.07;;;15.80;99.90;;;;;;7339097;32;20099;-56
2023/08/30 08:06:16;;;;;;;17.12;10.32;;;15.90;99.90;;;;;;7344436;32;20485;-56
2023/08/30 08:10:18;;;;;;;12.35;10.98;;;16.00;99.90;;;;;;7343311;32;20160;-57
2023/08/30 08:14:20;;;;;;;13.10;9.73;;;16.40;99.90;;;;;;7342292;32;20107;-57
2023/08/30 08:18:21;;;;;;;11.60;7.65;;;16.70;99.90;;;;;;7344183;32;20133;-58
2023/08/30 08:22:23;;;;;;;11.32;8.00;;;16.90;99.90;;;;;;7345887;32;20218;-57
2023/08/30 08:26:25;;;;;;;10.98;8.55;;;17.10;99.90;;;;;;7340725;32;20206;-57
2023/08/30 08:30:27;;;;;;;9.35;7.62;;;17.20;99.90;;;;;;7333379;32;20258;-57
2023/08/30 08:34:29;;;;;;;10.43;7.28;;;17.40;99.90;;;;;;7339655;32;20095;-57
2023/08/30 08:38:31;;;;;;;8.80;7.70;;;17.60;99.90;;;;;;7349229;32;20233;-58
2023/08/30 08:42:36;;;;;;;10.50;8.20;;;17.80;99.90;;;;;;7348028;32;20099;-57
2023/08/30 08:46:39;;;;;;;11.65;7.32;;;17.90;99.90;;;;;;7340534;32;20634;-57
2023/08/30 08:50:41;;;;;;;8.65;4.12;;;18.10;99.90;;;;;;7337716;32;20452;-57
2023/08/30 08:54:44;;;;;;;6.55;3.97;;;18.20;99.90;;;;;;7326646;32;20800;-57
2023/08/30 08:58:46;;;;;;;6.53;3.83;;;18.40;99.90;;;;;;7342212;32;20100;-57
2023/08/30 09:02:51;;;;;;;5.28;3.87;;;18.50;99.90;;;;;;7332157;32;20291;-58
2023/08/30 09:06:54;;;;;;;7.03;4.15;;;18.50;99.90;;;;;;7342958;32;20282;-57
2023/08/30 09:10:56;;;;;;;6.28;3.97;;;18.60;99.90;;;;;;7343825;32;20234;-57
2023/08/30 09:14:58;;;;;;;8.88;4.18;;;18.60;99.90;;;;;;7347880;32;20182;-58
2023/08/30 09:19:01;;;;;;;8.25;4.10;;;18.40;99.90;;;;;;7345341;32;20210;-57
2023/08/30 09:23:20;;;;;;;8.55;3.92;;;18.00;99.90;;;;;;7344372;32;20131;-57
2023/08/30 09:27:33;;;;;;;6.30;3.70;;;17.70;99.90;;;;;;7348299;32;20572;-58
2023/08/30 09:31:36;;;;;;;7.45;3.75;;;17.60;99.90;;;;;;7342372;32;20187;-59
2023/08/30 09:35:47;;;;;;;6.03;3.33;;;17.40;99.90;;;;;;7349477;32;20303;-59
2023/08/30 09:39:52;;;;;;;5.40;3.60;;;17.40;99.90;;;;;;7351578;32;20590;-59
2023/08/30 09:43:54;;;;;;;12.52;4.32;;;17.30;99.90;;;;;;7351249;32;20099;-59
2023/08/30 09:48:14;;;;;;;7.10;3.60;;;17.10;99.90;;;;;;7341570;32;20426;-58
2023/08/30 09:52:16;;;;;;;6.18;3.72;;;16.90;99.90;;;;;;7347625;32;20121;-58
2023/08/30 09:56:19;;;;;;;8.85;3.95;;;16.80;99.90;;;;;;7357502;32;20310;-58
2023/08/30 10:00:21;;;;;;;6.18;3.90;;;16.70;99.90;;;;;;7356985;32;20131;-58
2023/08/30 10:04:24;;;;;;;5.57;4.25;;;16.60;99.90;;;;;;7357248;32;20098;-58
2023/08/30 10:08:30;;;;;;;9.70;4.40;;;16.50;99.90;;;;;;7362827;32;20111;-58
2023/08/30 10:12:32;;;;;;;7.67;4.63;;;16.30;99.90;;;;;;7353034;32;20110;-59
2023/08/30 10:16:45;;;;;;;6.80;5.10;;;16.30;99.90;;;;;;7352470;32;20614;-58
2023/08/30 10:20:47;;;;;;;7.18;5.22;;;16.30;99.90;;;;;;7347997;32;20677;-58
2023/08/30 10:25:04;;;;;;;8.13;5.50;;;16.20;99.90;;;;;;7349314;32;20127;-58
2023/08/30 10:29:15;;;;;;;8.68;5.32;;;16.20;99.90;;;;;;7350018;32;20096;-59
2023/08/30 10:33:18;;;;;;;9.25;5.28;;;16.10;99.90;;;;;;7346323;32;20469;-59
2023/08/30 10:37:25;;;;;;;9.00;4.70;;;16.00;99.90;;;;;;7353568;32;20144;-58
2023/08/30 10:41:27;;;;;;;6.43;4.60;;;16.00;99.90;;;;;;7349157;32;20206;-59
2023/08/30 10:45:30;;;;;;;7.60;4.30;;;15.90;99.90;;;;;;7335774;32;20103;-58
2023/08/30 10:49:41;;;;;;;7.72;4.32;;;15.90;99.90;;;;;;7355246;32;20103;-59
2023/08/30 10:53:43;;;;;;;10.00;4.72;;;15.90;99.90;;;;;;7340702;32;20131;-59
2023/08/30 10:57:45;;;;;;;8.52;5.60;;;15.90;99.90;;;;;;7355098;32;20108;-59
2023/08/30 11:01:51;;;;;;;6.80;5.05;;;15.90;99.90;;;;;;7347210;32;20246;-58
2023/08/30 11:05:56;;;;;;;6.97;4.72;;;15.60;99.90;;;;;;7352171;32;20151;-57
2023/08/30 11:09:58;;;;;;;6.47;4.30;;;15.20;99.90;;;;;;7350698;32;20852;-58
2023/08/30 11:14:09;;;;;;;6.90;4.57;;;15.20;99.90;;;;;;7351289;32;20218;-58
2023/08/30 11:18:11;;;;;;;5.18;3.70;;;15.20;99.90;;;;;;7344257;32;20204;-57
2023/08/30 11:22:13;;;;;;;8.40;4.50;;;15.20;99.90;;;;;;7346022;32;20106;-59
2023/08/30 11:26:16;;;;;;;4.72;3.53;;;15.10;99.90;;;;;;7357995;32;20187;-58
2023/08/30 11:30:20;;;;;;;7.45;4.07;;;15.10;99.90;;;;;;7347151;32;20564;-59
2023/08/30 11:34:22;;;;;;;6.47;4.30;;;15.10;99.90;;;;;;7348406;32;20096;-58
2023/08/30 11:38:26;;;;;;;5.80;4.72;;;15.10;99.90;;;;;;7346397;32;20106;-58
2023/08/30 11:42:27;;;;;;;6.62;4.60;;;15.20;99.90;;;;;;7349806;32;20103;-59
2023/08/30 11:46:30;;;;;;;6.43;4.55;;;15.10;99.90;;;;;;7348399;32;20190;-58
2023/08/30 11:50:33;;;;;;;6.85;4.80;;;15.20;99.90;;;;;;7346965;32;20125;-58
2023/08/30 11:54:50;;;;;;;5.90;4.20;;;15.10;99.90;;;;;;7351643;32;20129;-59
2023/08/30 11:58:51;;;;;;;5.53;4.35;;;15.20;99.90;;;;;;7352743;32;20142;-58
2023/08/30 12:02:53;;;;;;;7.35;5.00;;;15.20;99.90;;;;;;7342030;32;21604;-59
2023/08/30 12:06:55;;;;;;;6.28;4.97;;;15.20;99.90;;;;;;7343401;32;20113;-58
2023/08/30 12:10:57;;;;;;;6.80;4.70;;;15.10;99.90;;;;;;7348702;32;20146;-57
2023/08/30 12:14:59;;;;;;;4.90;4.28;;;15.20;99.90;;;;;;7345009;32;20122;-58
2023/08/30 12:19:10;;;;;;;5.10;3.90;;;15.30;99.90;;;;;;7345077;32;20482;-57
2023/08/30 12:23:20;;;;;;;6.00;4.55;;;15.30;99.90;;;;;;7345391;32;20661;-57
2023/08/30 12:27:22;;;;;;;6.87;4.37;;;15.30;99.90;;;;;;7341060;32;20094;-58
2023/08/30 12:31:24;;;;;;;5.28;3.62;;;15.50;99.90;;;;;;7343765;32;20465;-58
2023/08/30 12:35:25;;;;;;;7.03;4.37;;;15.50;99.90;;;;;;7351173;32;20307;-58
2023/08/30 12:39:27;;;;;;;6.15;4.80;;;15.40;99.90;;;;;;7340336;32;20104;-58
2023/08/30 12:43:29;;;;;;;6.37;4.37;;;15.40;99.90;;;;;;7346864;32;20175;-58
2023/08/30 12:47:31;;;;;;;5.18;4.53;;;15.30;99.90;;;;;;7337222;32;20656;-58
2023/08/30 12:51:32;;;;;;;8.35;4.75;;;15.30;99.90;;;;;;7334773;32;20108;-58
2023/08/30 12:55:35;;;;;;;5.22;4.72;;;15.30;99.90;;;;;;7350780;32;20152;-57
2023/08/30 12:59:36;;;;;;;6.50;5.05;;;15.30;99.90;;;;;;7339429;32;20461;-57
2023/08/30 13:03:38;;;;;;;6.55;5.28;;;15.30;99.90;;;;;;7347257;32;20197;-58
2023/08/30 13:07:40;;;;;;;6.68;5.57;;;15.30;99.90;;;;;;7348458;32;20506;-58
2023/08/30 13:11:41;;;;;;;7.65;5.50;;;15.30;99.90;;;;;;7341571;32;20108;-57
2023/08/30 13:15:43;;;;;;;6.93;5.65;;;15.30;99.90;;;;;;7345272;32;20220;-57
2023/08/30 13:19:45;;;;;;;6.80;5.53;;;15.20;99.90;;;;;;7352716;32;20182;-57
2023/08/30 13:23:47;;;;;;;5.95;5.20;;;15.20;99.90;;;;;;7344525;32;20128;-57
2023/08/30 13:27:48;;;;;;;5.75;5.10;;;15.30;99.90;;;;;;7357306;32;20140;-57
2023/08/30 13:31:50;;;;;;;6.53;4.68;;;15.50;99.90;;;;;;7342069;32;20579;-58
2023/08/30 13:35:52;;;;;;;6.50;4.70;;;15.50;99.90;;;;;;7343196;32;20176;-58
2023/08/30 13:39:54;;;;;;;4.93;4.05;;;15.70;99.90;;;;;;7351741;32;20121;-57
2023/08/30 13:43:55;;;;;;;4.37;3.55;;;15.70;99.90;;;;;;7347681;32;20170;-58
2023/08/30 13:48:01;;;;;;;6.40;4.12;;;15.70;99.90;;;;;;7345115;32;20663;-58
2023/08/30 13:52:03;;;;;;;4.60;3.25;;;15.70;99.90;;;;;;7343868;32;20489;-58
2023/08/30 13:56:05;;;;;;;6.20;3.60;;;15.70;99.90;;;;;;7351490;32;20205;-58
2023/08/30 14:00:09;;;;;;;4.00;3.60;;;15.70;99.90;;;;;;7345423;32;20511;-58
2023/08/30 14:04:11;;;;;;;5.45;3.12;;;15.60;99.90;;;;;;7356218;32;20129;-59
2023/08/30 14:08:13;;;;;;;3.60;2.90;;;15.60;99.90;;;;;;7347185;32;20246;-64
2023/08/30 14:12:15;;;;;;;4.03;2.60;;;15.50;99.90;;;;;;7352849;32;20110;-64
2023/08/30 14:16:17;;;;;;;3.30;2.60;;;15.50;99.90;;;;;;7345483;32;20220;-58
2023/08/30 14:20:18;;;;;;;2.97;2.65;;;15.50;99.90;;;;;;7343441;32;20523;-58
2023/08/30 14:24:20;;;;;;;4.40;3.60;;;15.60;99.90;;;;;;7351649;32;20613;-57
2023/08/30 14:28:22;;;;;;;3.90;3.12;;;15.60;99.90;;;;;;7358309;32;20562;-58
2023/08/30 14:32:23;;;;;;;4.97;3.53;;;15.60;99.90;;;;;;7352270;32;20112;-57
2023/08/30 14:36:25;;;;;;;10.35;7.47;;;15.50;99.90;;;;;;7347941;32;20183;-57
2023/08/30 14:40:27;;;;;;;4.43;3.55;;;15.50;99.90;;;;;;7342955;32;20214;-57
2023/08/30 14:44:29;;;;;;;3.87;3.30;;;15.40;99.90;;;;;;7347847;32;20194;-59
2023/08/30 14:48:32;;;;;;;5.40;4.07;;;15.20;99.90;;;;;;7349114;32;20303;-58
2023/08/30 14:52:33;;;;;;;5.25;3.58;;;15.20;99.90;;;;;;7344686;32;20122;-59
2023/08/30 14:56:35;;;;;;;4.65;4.10;;;15.20;99.90;;;;;;7349938;32;20511;-58
2023/08/30 15:00:37;;;;;;;4.78;3.70;;;15.30;99.90;;;;;;7343388;32;20739;-58
2023/08/30 15:04:40;;;;;;;4.37;3.97;;;15.30;99.90;;;;;;7349540;32;20124;-59
2023/08/30 15:08:42;;;;;;;5.97;4.00;;;15.20;99.90;;;;;;7337158;32;20529;-58
2023/08/30 15:12:44;;;;;;;5.97;4.03;;;15.10;99.90;;;;;;7350063;32;20125;-57
2023/08/30 15:16:46;;;;;;;7.18;4.47;;;15.20;99.90;;;;;;7337295;32;20099;-55
2023/08/30 15:20:51;;;;;;;6.20;4.70;;;15.10;99.90;;;;;;7351507;32;20091;-58
2023/08/30 15:24:53;;;;;;;5.47;4.70;;;15.20;99.90;;;;;;7342764;32;20103;-55
2023/08/30 15:28:54;;;;;;;6.40;4.87;;;15.40;99.90;;;;;;7346758;32;20134;-57
2023/08/30 15:32:56;;;;;;;8.63;4.70;;;15.60;99.90;;;;;;7347640;32;20835;-56
2023/08/30 15:36:58;;;;;;;5.03;3.90;;;15.80;99.90;;;;;;7307002;32;20171;-56
2023/08/30 15:41:00;;;;;;;5.20;4.00;;;15.90;99.90;;;;;;7351963;32;20200;-56
2023/08/30 15:45:03;;;;;;;5.62;3.60;;;15.90;99.90;;;;;;7344339;32;20156;-56
2023/08/30 15:49:05;;;;;;;5.70;4.00;;;16.00;99.90;;;;;;7351451;32;20167;-56
2023/08/30 15:53:07;;;;;;;6.20;4.50;;;16.00;99.90;;;;;;7341857;32;20190;-56
2023/08/30 15:57:09;;;;;;;7.95;4.35;;;16.00;99.90;;;;;;7346054;32;20178;-58
2023/08/30 16:01:13;;;;;;;8.07;5.78;;;16.00;99.90;;;;;;7310911;32;22651;-57
2023/08/30 16:05:15;;;;;;;7.43;6.03;;;16.00;99.90;;;;;;7330166;32;20177;-55
2023/08/30 16:09:16;;;;;;;9.20;5.55;;;16.00;99.90;;;;;;7348346;32;20107;-56
2023/08/30 16:13:18;;;;;;;12.50;6.78;;;15.90;99.90;;;;;;7351731;32;20418;-57
2023/08/30 16:17:20;;;;;;;9.38;6.10;;;16.00;99.90;;;;;;7348209;32;20195;-57
2023/08/30 16:21:22;;;;;;;7.57;6.37;;;15.90;99.90;;;;;;7348353;32;20261;-56
2023/08/30 16:25:25;;;;;;;7.85;6.15;;;15.80;99.90;;;;;;7336999;32;20140;-57
2023/08/30 16:29:27;;;;;;;9.93;6.40;;;15.80;99.90;;;;;;7353906;32;20095;-56
2023/08/30 16:33:28;;;;;;;7.10;6.37;;;15.90;99.90;;;;;;7346963;32;20186;-56
2023/08/30 16:37:30;;;;;;;7.80;5.80;;;16.10;99.90;;;;;;7304073;32;20131;-56
2023/08/30 16:41:32;;;;;;;8.00;5.75;;;16.20;99.90;;;;;;7344334;32;20156;-57
2023/08/30 16:45:33;;;;;;;7.97;5.43;;;16.10;99.90;;;;;;7349125;32;20520;-57
2023/08/30 16:49:35;;;;;;;8.70;5.75;;;16.10;99.90;;;;;;7347437;32;20161;-56
2023/08/30 16:53:37;;;;;;;10.90;5.62;;;16.00;99.90;;;;;;7345024;32;20825;-57
2023/08/30 16:57:39;;;;;;;8.30;5.35;;;15.90;99.90;;;;;;7341899;32;20142;-57
2023/08/30 17:01:44;;;;;;;7.25;5.47;;;15.80;99.90;;;;;;7342904;32;20211;-57
2023/08/30 17:05:46;;;;;;;9.32;5.80;;;15.80;99.90;;;;;;7340762;32;20099;-56
2023/08/30 17:09:48;;;;;;;10.95;6.12;;;15.80;99.90;;;;;;7343319;32;20156;-57
2023/08/30 17:13:49;;;;;;;9.10;5.55;;;15.90;99.90;;;;;;7336111;32;20348;-56
2023/08/30 17:17:53;;;;;;;8.90;5.10;;;15.80;99.90;;;;;;7342185;32;20210;-57
2023/08/30 17:21:55;;;;;;;9.48;5.30;;;15.70;99.90;;;;;;7348247;32;20099;-55
2023/08/30 17:25:58;;;;;;;12.70;5.62;;;15.70;99.90;;;;;;7337054;32;20103;-56
2023/08/30 17:29:59;;;;;;;8.70;5.45;;;15.60;99.90;;;;;;7341110;32;20186;-56
2023/08/30 17:34:01;;;;;;;10.43;4.82;;;15.70;99.90;;;;;;7284417;32;20860;-57
2023/08/30 17:38:03;;;;;;;5.82;4.28;;;15.60;99.90;;;;;;7348154;32;20096;-57
2023/08/30 17:42:05;;;;;;;11.18;3.80;;;15.40;99.90;;;;;;7332752;32;20209;-58
2023/08/30 17:46:07;;;;;;;6.82;3.35;;;15.30;99.90;;;;;;7334053;32;20107;-58
2023/08/30 17:50:11;;;;;;;5.65;3.05;;;15.30;99.90;;;;;;7308705;32;20733;-59
2023/08/30 17:54:15;;;;;;;5.15;2.83;;;15.10;99.90;;;;;;7351222;32;20099;-57
2023/08/30 17:58:17;;;;;;;7.55;3.33;;;14.90;99.90;;;;;;7348549;32;20099;-58
2023/08/30 18:02:19;;;;;;;10.75;3.60;;;14.80;99.90;;;;;;7343579;32;20216;-56
2023/08/30 18:06:21;;;;;;;7.30;3.40;;;14.70;99.90;;;;;;7345224;32;20186;-56
2023/08/30 18:10:23;;;;;;;9.60;4.18;;;14.60;99.90;;;;;;7309721;32;20236;-56
2023/08/30 18:14:25;;;;;;;10.07;3.55;;;14.80;99.90;;;;;;7296607;32;20125;-56
2023/08/30 18:18:27;;;;;;;8.10;3.40;;;14.60;99.90;;;;;;7351025;32;20178;-55
2023/08/30 18:22:28;;;;;;;9.65;4.00;;;14.50;99.90;;;;;;7342198;32;20182;-55
2023/08/30 18:26:30;;;;;;;11.68;4.87;;;14.50;99.90;;;;;;7355295;32;20244;-55
2023/08/30 18:30:33;;;;;;;15.57;5.57;;;14.50;99.90;;;;;;7319803;32;20244;-58
2023/08/30 18:34:35;;;;;;;9.00;5.28;;;14.30;99.90;;;;;;7350293;32;20604;-55
2023/08/30 18:38:38;;;;;;;7.12;3.87;;;14.10;99.90;;;;;;7348724;32;20203;-56
2023/08/30 18:42:40;;;;;;;8.82;4.35;;;14.00;99.90;;;;;;7345917;32;20575;-55
2023/08/30 18:46:41;;;;;;;6.60;3.80;;;13.90;99.90;;;;;;7294624;32;20091;-56
2023/08/30 18:50:43;;;;;;;7.62;4.90;;;13.90;99.90;;;;;;7340413;32;20097;-56
2023/08/30 18:54:46;;;;;;;10.90;4.35;;;13.90;99.90;;;;;;7337209;32;20127;-55
2023/08/30 18:58:48;;;;;;;9.57;4.85;;;13.80;99.90;;;;;;7349824;32;20295;-56
2023/08/30 19:02:50;;;;;;;10.18;4.28;;;13.60;99.90;;;;;;7342102;32;20800;-57
2023/08/30 19:06:52;;;;;;;8.57;4.47;;;13.50;99.90;;;;;;7342128;32;20126;-55
2023/08/30 19:10:54;;;;;;;10.77;4.65;;;13.40;99.90;;;;;;7350892;32;20543;-57
2023/08/30 19:14:55;;;;;;;9.25;4.20;;;13.30;99.90;;;;;;7350214;32;20548;-57
2023/08/30 19:18:57;;;;;;;10.80;5.05;;;13.20;99.90;;;;;;7345386;32;20095;-57
2023/08/30 19:22:59;;;;;;;6.85;5.22;;;13.10;99.90;;;;;;7350381;32;20552;-56
2023/08/30 19:27:00;;;;;;;13.27;4.43;;;13.00;99.90;;;;;;7349012;32;20565;-57
2023/08/30 19:31:02;;;;;;;7.78;4.50;;;12.90;99.90;;;;;;7350758;32;20573;-57
2023/08/30 19:35:06;;;;;;;13.80;5.07;;;12.80;99.90;;;;;;7344700;32;20251;-56
2023/08/30 19:39:08;;;;;;;10.60;4.53;;;12.80;99.90;;;;;;7350640;32;20501;-56
2023/08/30 19:43:09;;;;;;;6.18;4.57;;;12.70;99.90;;;;;;7351043;32;20266;-57
2023/08/30 19:47:11;;;;;;;6.53;4.37;;;12.60;99.90;;;;;;7350302;32;20103;-57
2023/08/30 19:51:13;;;;;;;8.85;4.72;;;12.60;99.90;;;;;;7347676;32;20520;-57
2023/08/30 19:55:15;;;;;;;11.70;5.10;;;12.50;99.90;;;;;;7347126;32;20173;-58
2023/08/30 19:59:17;;;;;;;9.93;4.37;;;12.40;99.90;;;;;;7344557;32;20122;-57
2023/08/30 20:03:19;;;;;;;6.80;4.35;;;12.40;99.90;;;;;;7343378;32;20119;-58
2023/08/30 20:07:22;;;;;;;5.80;3.75;;;12.40;99.90;;;;;;7335206;32;20107;-57
2023/08/30 20:11:24;;;;;;;9.35;4.43;;;12.30;99.90;;;;;;7345030;32;20103;-57
2023/08/30 20:15:27;;;;;;;7.68;4.00;;;12.30;99.90;;;;;;7347599;32;20492;-56
2023/08/30 20:19:29;;;;;;;8.15;4.40;;;12.20;99.90;;;;;;7353974;32;20091;-57
2023/08/30 20:23:31;;;;;;;9.98;4.47;;;12.20;99.90;;;;;;7354069;32;20786;-57
2023/08/30 20:27:33;;;;;;;8.10;4.53;;;12.10;99.90;;;;;;7354443;32;20467;-57
2023/08/30 20:31:34;;;;;;;9.40;4.07;;;12.10;99.90;;;;;;7346301;32;20571;-56
2023/08/30 20:35:37;;;;;;;8.85;4.87;;;12.10;99.90;;;;;;7342696;32;20103;-57
2023/08/30 20:39:38;;;;;;;6.85;5.03;;;12.10;99.90;;;;;;7341492;32;20221;-57
2023/08/30 20:43:41;;;;;;;9.77;5.50;;;12.10;99.90;;;;;;7356662;32;20606;-57
2023/08/30 20:47:44;;;;;;;7.20;5.37;;;12.20;99.90;;;;;;7345256;32;20100;-58
2023/08/30 20:51:46;;;;;;;7.35;4.87;;;12.20;99.90;;;;;;7343374;32;20124;-57